Turkey, North Carolina
Current Conditions -  °F | °C
As of 12:35 AM on Thursday 23 Oct 2014 (Local Time) from KCTZ Reporting Station
Clear Clear  
Wind Chill: 52°   Ceiling: Unl
Heat Index: 52°   Visibility: 10mi
Dew Point: 45°   Wind: 3mph
Humidity: 77%   Direction: 280°W
Pressure: 30.03"   Gusts: NA
Location:  34.99°N, 78.18°W
Report Text: KCTZ 230435Z AUTO 28003KT 10SM CLR 11/07 A3003 RMK AO2 T01100071
Loading
Personal Weather Stations






























Interactive Weather Map New forecast layout! Learn more

10-Day Weather Forecast

Advertisements
Track Severe Weather on mobile